Time;durP1;ratioP1;P1;durP2;ratioP2;P2;SDS_P1;SDS_P2;PMS_P1;PMS_P2;Temp;Humidity;BMP_temperature;BMP_pressure;BME280_temperature;BME280_humidity;BME280_pressure;Samples;Min_cycle;Max_cycle;Signal;HPM_P1;HPM_P2
2021/04/02 00:00:52;;;;;;;6.15;3.80;;;;;;;6.32;100.00;98110.47;5092056;28;20488;-78
2021/04/02 00:03:24;;;;;;;5.55;3.88;;;;;;;6.36;100.00;98106.13;5092516;28;20052;-79
2021/04/02 00:05:52;;;;;;;5.13;3.70;;;;;;;6.30;100.00;98101.06;5092615;28;20058;-78
2021/04/02 00:08:18;;;;;;;6.32;3.97;;;;;;;6.31;100.00;98111.53;5093498;28;20055;-78
2021/04/02 00:10:56;;;;;;;5.85;3.60;;;;;;;6.24;100.00;98100.28;5093230;28;20411;-78
2021/04/02 00:13:31;;;;;;;6.35;4.05;;;;;;;6.33;100.00;98098.59;5094007;28;20089;-79
2021/04/02 00:15:57;;;;;;;4.18;2.78;;;;;;;6.26;100.00;98098.09;5093024;28;20044;-78
2021/04/02 00:18:26;;;;;;;7.07;4.15;;;;;;;6.17;100.00;98103.25;5092671;28;20051;-78
2021/04/02 00:20:54;;;;;;;6.25;4.60;;;;;;;6.16;100.00;98098.97;5093351;28;20044;-77
2021/04/02 00:23:22;;;;;;;7.60;4.72;;;;;;;6.17;100.00;98089.81;5093515;28;20036;-78
2021/04/02 00:25:49;;;;;;;8.52;4.50;;;;;;;6.20;100.00;98097.31;5089383;28;20040;-76
2021/04/02 00:28:15;;;;;;;9.35;4.68;;;;;;;6.26;100.00;98087.34;5070866;28;20433;-78
2021/04/02 00:30:52;;;;;;;7.90;5.47;;;;;;;6.21;100.00;98090.06;5088858;28;20405;-78
2021/04/02 00:33:21;;;;;;;10.30;5.55;;;;;;;6.24;100.00;98094.91;5071326;28;20047;-78
2021/04/02 00:35:47;;;;;;;8.20;5.45;;;;;;;6.16;100.00;98090.91;5070400;28;20054;-77
2021/04/02 00:38:14;;;;;;;9.27;6.03;;;;;;;6.14;100.00;98089.56;5091378;28;20510;-77
2021/04/02 00:40:42;;;;;;;7.63;5.65;;;;;;;6.19;100.00;98093.00;5092643;28;20051;-78
2021/04/02 00:43:08;;;;;;;10.75;5.75;;;;;;;6.17;100.00;98086.31;5075578;28;20047;-78
2021/04/02 00:45:34;;;;;;;9.98;6.18;;;;;;;6.06;100.00;98092.81;5075195;28;20548;-78
2021/04/02 00:48:02;;;;;;;9.10;6.40;;;;;;;6.03;100.00;98098.75;5076221;28;20044;-78
2021/04/02 00:50:34;;;;;;;9.80;6.40;;;;;;;6.11;100.00;98098.97;5096598;28;20051;-77
2021/04/02 00:53:00;;;;;;;9.02;6.45;;;;;;;6.04;100.00;98095.75;5095123;28;20047;-77
2021/04/02 00:55:27;;;;;;;11.05;6.45;;;;;;;6.05;100.00;98104.63;5080741;28;20119;-77
2021/04/02 00:57:53;;;;;;;12.07;7.63;;;;;;;6.07;100.00;98108.66;5100293;28;20043;-77
2021/04/02 01:00:20;;;;;;;11.07;7.00;;;;;;;6.02;100.00;98099.81;5100559;28;20101;-78
2021/04/02 01:02:49;;;;;;;11.15;7.20;;;;;;;5.97;100.00;98094.44;5080557;28;20623;-78
2021/04/02 01:05:18;;;;;;;12.63;6.82;;;;;;;5.95;100.00;98099.28;5092333;28;20048;-78
2021/04/02 01:07:52;;;;;;;12.30;6.72;;;;;;;5.98;100.00;98088.81;5074069;28;20556;-78
2021/04/02 01:10:20;;;;;;;12.32;7.45;;;;;;;5.90;100.00;98086.69;5092557;28;20060;-77
2021/04/02 01:12:49;;;;;;;11.43;7.97;;;;;;;5.98;100.00;98091.50;5073488;28;20520;-77
2021/04/02 01:15:36;;;;;;;11.13;6.90;;;;;;;5.93;100.00;98091.53;5091656;28;20075;-78
2021/04/02 01:18:10;;;;;;;12.60;7.03;;;;;;;5.95;100.00;98092.03;5073414;28;20047;-78
2021/04/02 01:20:38;;;;;;;11.25;7.68;;;;;;;5.95;100.00;98097.41;5091878;28;20040;-78
2021/04/02 01:23:10;;;;;;;14.25;7.82;;;;;;;6.00;100.00;98101.97;5075133;28;20130;-78
2021/04/02 01:25:52;;;;;;;14.38;7.40;;;;;;;6.00;100.00;98101.97;5091753;28;20051;-78
2021/04/02 01:28:41;;;;;;;11.73;6.90;;;;;;;6.07;100.00;98105.97;5073866;28;20097;-78
2021/04/02 01:31:09;;;;;;;10.02;6.70;;;;;;;6.05;100.00;98102.75;5062094;28;20056;-78
2021/04/02 01:33:36;;;;;;;11.80;7.57;;;;;;;6.05;100.00;98092.00;5093485;28;20221;-78
2021/04/02 01:36:05;;;;;;;9.80;6.95;;;;;;;6.06;100.00;98099.00;5091708;28;20469;-78
2021/04/02 01:38:35;;;;;;;11.48;7.30;;;;;;;6.04;100.00;98103.03;5091234;28;20040;-78
2021/04/02 01:41:05;;;;;;;14.27;8.43;;;;;;;5.99;100.00;98101.16;5073232;28;20432;-78
2021/04/02 01:43:38;;;;;;;15.18;8.05;;;;;;;5.97;100.00;98099.81;5091518;28;20044;-78
2021/04/02 01:46:06;;;;;;;14.00;8.65;;;;;;;5.95;100.00;98105.47;5072837;28;20047;-78
2021/04/02 01:48:34;;;;;;;14.55;8.85;;;;;;;5.82;100.00;98108.72;5090540;28;20407;-78
2021/04/02 01:51:01;;;;;;;15.98;9.30;;;;;;;5.80;100.00;98105.50;5074044;28;20097;-78
2021/04/02 01:53:31;;;;;;;15.98;9.43;;;;;;;5.75;100.00;98102.81;5091410;28;20040;-78
2021/04/02 01:55:58;;;;;;;18.58;10.25;;;;;;;5.73;100.00;98104.94;5091210;28;20077;-78
2021/04/02 01:58:24;;;;;;;17.00;11.00;;;;;;;5.70;100.00;98105.53;5093413;28;20515;-78
2021/04/02 02:00:55;;;;;;;19.10;10.85;;;;;;;5.71;100.00;98107.13;5075753;28;20542;-78
2021/04/02 02:03:23;;;;;;;17.73;11.52;;;;;;;5.68;100.00;98111.16;5091867;28;20051;-78
2021/04/02 02:05:53;;;;;;;20.73;13.02;;;;;;;5.67;100.00;98114.13;5091735;28;20055;-78
2021/04/02 02:08:21;;;;;;;22.77;13.13;;;;;;;5.60;100.00;98124.34;5090775;28;20039;-77
2021/04/02 02:10:54;;;;;;;22.35;12.90;;;;;;;5.63;100.00;98110.34;5090649;28;20039;-77
2021/04/02 02:13:22;;;;;;;24.92;13.43;;;;;;;5.57;100.00;98109.53;5071820;28;20051;-78
2021/04/02 02:15:51;;;;;;;24.25;14.40;;;;;;;5.68;100.00;98118.41;5090066;28;20036;-78
2021/04/02 02:18:20;;;;;;;24.42;14.02;;;;;;;5.68;100.00;98108.47;5089932;28;20048;-77
2021/04/02 02:20:47;;;;;;;25.20;15.15;;;;;;;5.63;100.00;98110.34;5090291;28;20044;-77
2021/04/02 02:23:14;;;;;;;29.13;16.58;;;;;;;5.70;100.00;98115.44;5089136;28;20575;-77
2021/04/02 02:25:40;;;;;;;27.02;15.23;;;;;;;5.72;100.00;98115.97;5088564;28;20293;-77
2021/04/02 02:28:07;;;;;;;23.95;14.73;;;;;;;5.68;100.00;98107.66;5088975;28;20079;-76
2021/04/02 02:30:34;;;;;;;23.05;14.10;;;;;;;5.63;100.00;98108.47;5089549;28;20040;-77
2021/04/02 02:33:00;;;;;;;23.17;13.88;;;;;;;5.59;100.00;98110.09;5090041;28;20052;-77
2021/04/02 02:35:26;;;;;;;25.52;15.27;;;;;;;5.61;100.00;98104.44;5089356;28;20044;-77
2021/04/02 02:37:56;;;;;;;23.80;14.18;;;;;;;5.68;100.00;98118.41;5089939;28;20044;-77
2021/04/02 02:40:25;;;;;;;21.60;12.60;;;;;;;5.66;100.00;98109.81;5090149;28;20232;-76
2021/04/02 02:42:53;;;;;;;22.33;12.57;;;;;;;5.63;100.00;98111.16;5054610;28;20099;-77
2021/04/02 02:45:20;;;;;;;23.20;12.52;;;;;;;5.58;100.00;98104.97;5089303;28;20112;-77
2021/04/02 02:47:46;;;;;;;22.65;12.38;;;;;;;5.57;100.00;98104.16;5089274;28;20454;-77
2021/04/02 02:50:18;;;;;;;18.92;11.38;;;;;;;5.68;100.00;98106.88;5055012;28;20142;-78
2021/04/02 02:52:46;;;;;;;19.00;11.45;;;;;;;5.64;100.00;98102.03;5089279;28;20514;-78
2021/04/02 02:55:14;;;;;;;22.50;13.02;;;;;;;5.60;100.00;98097.47;5089460;28;20040;-77
2021/04/02 02:57:44;;;;;;;24.52;13.43;;;;;;;5.61;100.00;98101.75;5089077;28;20051;-78
2021/04/02 03:00:15;;;;;;;23.55;14.00;;;;;;;5.55;100.00;98106.34;5071418;28;20121;-77
2021/04/02 03:02:45;;;;;;;26.20;14.32;;;;;;;5.56;100.00;98101.78;5089499;28;20059;-78
2021/04/02 03:05:16;;;;;;;28.23;15.25;;;;;;;5.48;100.00;98083.53;5089550;28;20097;-77
2021/04/02 03:07:44;;;;;;;26.40;15.00;;;;;;;5.63;100.00;98103.09;5072721;28;20040;-79
2021/04/02 03:10:12;;;;;;;27.55;14.90;;;;;;;5.61;100.00;98096.38;5073420;28;20042;-76
2021/04/02 03:12:44;;;;;;;25.95;14.93;;;;;;;5.59;100.00;98093.19;5089872;28;20068;-76
2021/04/02 03:15:14;;;;;;;24.70;13.60;;;;;;;5.53;100.00;98094.25;5089935;28;20154;-77
2021/04/02 03:17:42;;;;;;;27.15;13.98;;;;;;;5.49;100.00;98096.69;5089252;28;20064;-78
2021/04/02 03:20:10;;;;;;;27.13;14.18;;;;;;;5.43;100.00;98091.59;5072915;28;20047;-78
2021/04/02 03:22:36;;;;;;;27.48;14.32;;;;;;;5.46;100.00;98096.41;5091499;28;20535;-78
2021/04/02 03:25:12;;;;;;;30.33;14.18;;;;;;;5.37;100.00;98093.47;5090782;28;20097;-78
2021/04/02 03:27:40;;;;;;;27.35;14.73;;;;;;;5.45;100.00;98108.22;5073292;28;20040;-78
2021/04/02 03:30:10;;;;;;;31.60;16.10;;;;;;;5.37;100.00;98098.03;5072143;28;20048;-78
2021/04/02 03:32:41;;;;;;;32.08;16.67;;;;;;;5.43;100.00;98103.13;5071335;28;20051;-76
2021/04/02 03:35:10;;;;;;;32.53;16.58;;;;;;;5.41;100.00;98088.38;5088316;28;20413;-76
2021/04/02 03:37:37;;;;;;;29.98;16.80;;;;;;;5.45;100.00;98092.91;5070871;28;20419;-76
2021/04/02 03:40:11;;;;;;;34.90;17.75;;;;;;;5.44;100.00;98083.28;5088632;28;20491;-77
2021/04/02 03:42:39;;;;;;;33.25;16.73;;;;;;;5.50;100.00;98105.53;5088733;28;20044;-77
2021/04/02 03:45:09;;;;;;;16.70;8.40;;;;;;;5.36;100.00;98091.06;5088608;28;20309;-78
2021/04/02 03:47:36;;;;;;;8.82;5.18;;;;;;;5.28;100.00;98102.34;5088863;28;20068;-77
2021/04/02 03:50:05;;;;;;;8.50;5.20;;;;;;;5.20;100.00;98098.31;5071303;28;20048;-78
2021/04/02 03:52:44;;;;;;;9.40;5.30;;;;;;;5.13;100.00;98096.97;5076928;28;20055;-77
2021/04/02 03:55:18;;;;;;;10.13;6.15;;;;;;;5.10;100.00;98109.03;5081490;28;20052;-77
2021/04/02 03:57:46;;;;;;;10.00;6.28;;;;;;;5.17;100.00;98104.22;5090796;28;20032;-76
2021/04/02 04:00:27;;;;;;;11.10;6.03;;;;;;;5.10;100.00;98100.19;5072360;28;20040;-77
2021/04/02 04:02:55;;;;;;;10.93;4.90;;;;;;;5.01;100.00;98098.03;5071117;28;20388;-78
2021/04/02 04:05:21;;;;;;;7.85;4.80;;;;;;;4.96;100.00;98083.81;5088562;28;20571;-77
2021/04/02 04:07:49;;;;;;;8.38;5.15;;;;;;;4.92;100.00;98096.97;5088597;28;20044;-76
2021/04/02 04:10:18;;;;;;;10.15;5.28;;;;;;;4.95;100.00;98103.69;5088786;28;20514;-77
2021/04/02 04:12:48;;;;;;;10.30;5.40;;;;;;;4.85;100.00;98111.72;5091902;28;20052;-77
2021/04/02 04:15:16;;;;;;;9.55;5.75;;;;;;;4.89;100.00;98102.84;5092974;28;20445;-78
2021/04/02 04:17:45;;;;;;;12.00;5.68;;;;;;;4.88;100.00;98114.66;5092875;28;20036;-77
2021/04/02 04:20:15;;;;;;;8.95;5.35;;;;;;;4.65;100.00;98120.50;5075594;28;20043;-77
2021/04/02 04:22:43;;;;;;;7.85;4.90;;;;;;;4.61;100.00;98108.72;5074670;28;20101;-77
2021/04/02 04:25:11;;;;;;;8.57;5.30;;;;;;;4.49;100.00;98116.16;5092079;28;20044;-76
2021/04/02 04:27:44;;;;;;;10.80;5.35;;;;;;;4.59;100.00;98118.09;5093067;28;20095;-76
2021/04/02 04:30:15;;;;;;;9.82;5.57;;;;;;;4.55;100.00;98111.63;5092950;28;20063;-78
2021/04/02 04:32:41;;;;;;;12.88;6.13;;;;;;;4.53;100.00;98111.09;5092544;28;20097;-78
2021/04/02 04:35:11;;;;;;;12.68;6.05;;;;;;;4.63;100.00;98114.63;5093947;28;20043;-77
2021/04/02 04:37:40;;;;;;;12.77;6.55;;;;;;;4.70;100.00;98115.16;5077262;28;20404;-77
2021/04/02 04:40:11;;;;;;;13.10;6.72;;;;;;;4.59;100.00;98099.31;5078086;28;20067;-78
2021/04/02 04:42:38;;;;;;;11.93;6.45;;;;;;;4.62;100.00;98110.31;5081082;28;20495;-78
2021/04/02 04:45:07;;;;;;;9.00;5.40;;;;;;;4.58;100.00;98103.88;5070984;28;20048;-78
2021/04/02 04:47:35;;;;;;;11.80;5.60;;;;;;;4.57;100.00;98101.47;5056117;28;20040;-78
2021/04/02 04:50:06;;;;;;;12.80;6.32;;;;;;;4.65;100.00;98115.16;5060711;28;20059;-78
2021/04/02 04:52:37;;;;;;;7.78;5.53;;;;;;;4.64;100.00;98105.50;5081353;28;20178;-78
2021/04/02 04:55:08;;;;;;;10.50;6.50;;;;;;;4.70;100.00;98098.25;5073953;28;20037;-79
2021/04/02 04:57:37;;;;;;;11.02;6.72;;;;;;;4.65;100.00;98111.66;5075127;28;20068;-77
2021/04/02 05:00:06;;;;;;;10.32;6.22;;;;;;;4.57;100.00;98104.94;5072875;28;20512;-77
2021/04/02 05:02:33;;;;;;;10.98;6.63;;;;;;;4.64;100.00;98110.88;5038105;28;20041;-78
2021/04/02 05:05:01;;;;;;;13.95;6.90;;;;;;;4.63;100.00;98103.88;5071652;28;20458;-77
2021/04/02 05:07:30;;;;;;;12.70;6.97;;;;;;;4.66;100.00;98102.56;5072083;28;20045;-77
2021/04/02 05:09:59;;;;;;;10.23;7.13;;;;;;;4.73;100.00;98101.22;5072345;28;20214;-77
2021/04/02 05:12:26;;;;;;;9.35;6.30;;;;;;;4.67;100.00;98101.50;5091895;28;20206;-78
2021/04/02 05:14:53;;;;;;;13.75;6.78;;;;;;;4.76;100.00;98107.94;5072790;28;20040;-78
2021/04/02 05:17:21;;;;;;;10.05;6.40;;;;;;;4.80;100.00;98120.53;5073938;28;20186;-78
2021/04/02 05:19:48;;;;;;;10.43;6.70;;;;;;;4.86;100.00;98116.00;5092485;28;20483;-78
2021/04/02 05:22:15;;;;;;;9.98;6.00;;;;;;;4.93;100.00;98120.03;5091513;28;20047;-77
2021/04/02 05:24:41;;;;;;;9.40;5.80;;;;;;;4.76;100.00;98119.47;5090422;28;20510;-78
2021/04/02 05:27:07;;;;;;;10.40;6.07;;;;;;;4.77;100.00;98113.03;5073631;28;20040;-78
2021/04/02 05:29:33;;;;;;;10.32;6.40;;;;;;;4.84;100.00;98118.94;5091285;28;20052;-78
2021/04/02 05:32:00;;;;;;;12.30;6.47;;;;;;;4.91;100.00;98127.53;5091910;28;20392;-77
2021/04/02 05:34:28;;;;;;;9.80;6.47;;;;;;;4.96;100.00;98116.81;5091502;28;20090;-78
2021/04/02 05:36:54;;;;;;;10.88;6.28;;;;;;;4.98;100.00;98125.38;5073406;28;20062;-78
2021/04/02 05:39:20;;;;;;;9.95;5.80;;;;;;;5.06;100.00;98118.69;5095145;28;20406;-77
2021/04/02 05:42:05;;;;;;;7.78;5.85;;;;;;;5.03;100.00;98119.25;5091831;28;20040;-77
2021/04/02 05:44:36;;;;;;;8.48;5.40;;;;;;;5.08;100.00;98113.06;5091093;28;20051;-78
2021/04/02 05:47:08;;;;;;;8.27;5.40;;;;;;;4.97;100.00;98117.63;5092768;28;20048;-78
2021/04/02 05:49:39;;;;;;;10.05;4.93;;;;;;;4.86;100.00;98114.13;5087196;23;20048;-78
2021/04/02 05:52:06;;;;;;;6.93;5.00;;;;;;;5.01;100.00;98118.69;5074730;28;20365;-78
2021/04/02 05:54:37;;;;;;;7.50;5.18;;;;;;;5.10;100.00;98113.59;5055968;28;20129;-78
2021/04/02 05:57:04;;;;;;;7.30;4.82;;;;;;;5.15;100.00;98113.59;5064515;28;20136;-78
2021/04/02 05:59:31;;;;;;;7.70;5.07;;;;;;;5.13;100.00;98103.16;5083017;28;20094;-78
2021/04/02 06:01:57;;;;;;;6.30;4.35;;;;;;;5.22;100.00;98098.03;5068576;28;20040;-78
2021/04/02 06:04:23;;;;;;;6.35;4.40;;;;;;;5.33;100.00;98094.28;5049318;28;20050;-78
2021/04/02 06:06:49;;;;;;;6.43;4.40;;;;;;;5.33;100.00;98105.00;5046821;28;20048;-77
2021/04/02 06:09:15;;;;;;;7.90;4.25;;;;;;;5.29;100.00;98107.41;5047735;28;20048;-78
2021/04/02 06:11:44;;;;;;;5.10;3.90;;;;;;;5.47;100.00;98098.03;5059875;28;20597;-78
2021/04/02 06:14:10;;;;;;;5.88;3.83;;;;;;;5.50;100.00;98114.41;5072278;28;20123;-78
2021/04/02 06:16:36;;;;;;;4.93;3.60;;;;;;;5.58;100.00;98113.84;5061671;28;20325;-79
2021/04/02 06:19:08;;;;;;;6.00;3.35;;;;;;;5.63;100.00;98118.41;5061992;28;20461;-79
2021/04/02 06:21:44;;;;;;;4.57;3.17;;;;;;;5.30;100.00;98121.66;5062304;28;20044;-79
2021/04/02 06:24:12;;;;;;;4.22;3.00;;;;;;;5.37;100.00;98120.31;5066864;28;20034;-79
2021/04/02 06:26:39;;;;;;;4.95;3.42;;;;;;;5.38;100.00;98132.66;5091398;28;20101;-79
2021/04/02 06:29:05;;;;;;;3.92;3.10;;;;;;;5.40;100.00;98127.81;5074735;28;20056;-79
2021/04/02 06:31:35;;;;;;;4.50;2.97;;;;;;;5.20;100.00;98135.06;5049075;28;20678;-78
2021/04/02 06:34:05;;;;;;;4.65;3.20;;;;;;;5.18;100.00;98135.34;5075691;28;20733;-78
2021/04/02 06:36:31;;;;;;;5.72;3.58;;;;;;;5.28;100.00;98134.53;5077082;28;20047;-78
2021/04/02 06:39:02;;;;;;;4.75;3.45;;;;;;;5.07;100.00;98138.28;5061550;28;20070;-78
2021/04/02 06:41:31;;;;;;;4.32;2.78;;;;;;;5.01;100.00;98145.50;5072434;28;20127;-79
2021/04/02 06:44:01;;;;;;;5.53;3.40;;;;;;;5.12;100.00;98133.72;5083120;28;20052;-79
2021/04/02 06:46:29;;;;;;;7.18;4.15;;;;;;;5.06;100.00;98147.44;5062703;28;20048;-78
2021/04/02 06:49:08;;;;;;;8.38;4.57;;;;;;;5.04;100.00;98145.81;5062921;28;20036;-78
2021/04/02 06:51:42;;;;;;;7.57;4.35;;;;;;;4.80;100.00;98163.44;5061890;28;20040;-78
2021/04/02 06:54:24;;;;;;;7.18;4.00;;;;;;;4.87;100.00;98165.91;5061524;28;20503;-78
2021/04/02 06:56:55;;;;;;;5.70;4.22;;;;;;;4.77;100.00;98161.31;5049773;28;20138;-78
2021/04/02 06:59:24;;;;;;;4.63;3.33;;;;;;;4.70;100.00;98170.66;5072631;28;20415;-78
2021/04/02 07:01:53;;;;;;;5.88;3.60;;;;;;;4.69;100.00;98167.19;5071982;28;20044;-78
2021/04/02 07:04:23;;;;;;;5.65;3.67;;;;;;;4.77;100.00;98176.59;5089032;28;20048;-78
2021/04/02 07:06:52;;;;;;;7.25;3.13;;;;;;;4.72;100.00;98174.69;5068805;28;20036;-78
2021/04/02 07:09:21;;;;;;;6.80;3.80;;;;;;;4.78;100.00;98162.91;5069939;28;20049;-78
2021/04/02 07:12:00;;;;;;;11.23;5.80;;;;;;;4.82;100.00;98184.66;5069736;28;20055;-78
2021/04/02 07:14:27;;;;;;;6.03;3.60;;;;;;;4.67;100.00;98185.41;5070313;28;20411;-78
2021/04/02 07:16:54;;;;;;;5.60;3.50;;;;;;;4.61;100.00;98173.06;5057700;28;20408;-78
2021/04/02 07:19:21;;;;;;;5.88;3.70;;;;;;;4.72;100.00;98174.69;5050861;28;20048;-78
2021/04/02 07:21:51;;;;;;;6.53;3.58;;;;;;;4.67;100.00;98173.88;5051121;28;20068;-78
2021/04/02 07:24:21;;;;;;;4.32;3.15;;;;;;;4.61;100.00;98169.56;5056424;28;20103;-79
2021/04/02 07:26:51;;;;;;;6.78;3.40;;;;;;;4.72;100.00;98173.91;5089087;28;20043;-78
2021/04/02 07:29:20;;;;;;;5.68;3.75;;;;;;;4.66;100.00;98166.91;5089154;28;20048;-79
2021/04/02 07:31:48;;;;;;;5.45;3.63;;;;;;;4.73;100.00;98157.53;5090594;28;20048;-78
2021/04/02 07:34:16;;;;;;;5.18;3.45;;;;;;;4.81;100.00;98166.94;5062506;28;20052;-78
2021/04/02 07:36:42;;;;;;;5.72;3.35;;;;;;;4.91;100.00;98178.50;5052248;28;20048;-79
2021/04/02 07:39:09;;;;;;;4.57;3.08;;;;;;;5.02;100.00;98182.81;5036792;28;20071;-79
2021/04/02 07:41:44;;;;;;;4.95;3.00;;;;;;;4.98;100.00;98173.69;5054014;28;20274;-79
2021/04/02 07:44:14;;;;;;;6.25;3.00;;;;;;;5.16;100.00;98179.63;5078788;28;20047;-79
2021/04/02 07:47:08;;;;;;;6.25;2.80;;;;;;;5.17;100.00;98174.00;5072791;28;20052;-79
2021/04/02 07:49:46;;;;;;;4.38;2.75;;;;;;;4.96;100.00;98173.16;5091712;28;20092;-79
2021/04/02 07:52:12;;;;;;;5.15;2.95;;;;;;;5.13;100.00;98177.47;5037683;28;20056;-79
2021/04/02 07:54:42;;;;;;;5.05;3.10;;;;;;;5.07;100.00;98179.34;5062147;28;20048;-78
2021/04/02 07:57:11;;;;;;;7.82;3.58;;;;;;;5.17;100.00;98182.03;5056906;28;20056;-78
2021/04/02 07:59:44;;;;;;;5.15;3.47;;;;;;;5.02;100.00;98187.38;5075963;28;20078;-78
2021/04/02 08:02:12;;;;;;;7.07;3.40;;;;;;;4.86;100.00;98194.59;5053035;28;20049;-79
2021/04/02 08:04:53;;;;;;;6.18;3.75;;;;;;;4.95;100.00;98197.56;5070353;28;20045;-79
2021/04/02 08:07:31;;;;;;;6.43;3.97;;;;;;;4.75;100.00;98192.16;5032871;28;20053;-79
2021/04/02 08:10:01;;;;;;;7.75;4.38;;;;;;;4.96;100.00;98193.81;5051136;28;20041;-79
2021/04/02 08:12:33;;;;;;;7.18;4.20;;;;;;;5.00;100.00;98197.59;5051877;28;20064;-79
2021/04/02 08:15:05;;;;;;;7.32;4.85;;;;;;;4.99;100.00;98204.81;5049649;28;20052;-79
2021/04/02 08:17:32;;;;;;;10.38;4.75;;;;;;;5.04;100.00;98207.50;5073592;28;20127;-78
2021/04/02 08:20:13;;;;;;;7.60;5.30;;;;;;;5.19;100.00;98200.56;5074836;28;20266;-79
2021/04/02 08:22:41;;;;;;;6.97;4.63;;;;;;;5.12;100.00;98206.19;5057726;28;20047;-78
2021/04/02 08:25:10;;;;;;;10.45;4.70;;;;;;;5.10;100.00;98194.09;5057903;28;20059;-79
2021/04/02 08:27:40;;;;;;;8.75;5.45;;;;;;;5.17;100.00;98202.69;5036996;28;20075;-79
2021/04/02 08:30:10;;;;;;;8.35;4.65;;;;;;;5.27;100.00;98200.84;5054994;28;20563;-79
2021/04/02 08:32:39;;;;;;;6.75;4.32;;;;;;;5.40;100.00;98194.94;5054657;28;20059;-79
2021/04/02 08:35:07;;;;;;;8.75;4.80;;;;;;;5.40;100.00;98197.63;5053803;28;20403;-79
2021/04/02 08:37:34;;;;;;;10.23;5.43;;;;;;;5.33;100.00;98204.34;5070254;28;20048;-79
2021/04/02 08:40:07;;;;;;;15.30;7.97;;;;;;;5.24;100.00;98201.38;5052495;28;20147;-79
2021/04/02 08:42:33;;;;;;;15.70;7.13;;;;;;;4.87;100.00;98195.41;5032596;28;20048;-79
2021/04/02 08:45:09;;;;;;;15.88;7.93;;;;;;;4.68;100.00;98205.78;5046267;28;20135;-78
2021/04/02 08:47:37;;;;;;;17.52;5.85;;;;;;;4.70;100.00;98208.19;5075040;28;20036;-78
2021/04/02 08:50:05;;;;;;;12.45;5.65;;;;;;;4.75;100.00;98214.38;5088992;28;20044;-78
2021/04/02 08:52:32;;;;;;;11.15;5.85;;;;;;;4.80;100.00;98225.13;5072918;28;20094;-79
2021/04/02 08:55:06;;;;;;;10.05;5.85;;;;;;;4.92;100.00;98220.38;5053506;28;20052;-78
2021/04/02 08:57:34;;;;;;;9.25;6.05;;;;;;;4.98;100.00;98223.88;5057137;28;20037;-78
2021/04/02 09:00:06;;;;;;;7.88;5.00;;;;;;;4.91;100.00;98224.09;5093711;28;20048;-79
2021/04/02 09:02:35;;;;;;;7.78;5.13;;;;;;;4.77;100.00;98220.31;5094416;28;20079;-79
2021/04/02 09:05:05;;;;;;;11.35;6.28;;;;;;;4.78;100.00;98229.97;5063017;28;20040;-78
2021/04/02 09:07:39;;;;;;;11.82;6.00;;;;;;;4.67;100.00;98224.84;5063645;28;20044;-79
2021/04/02 09:10:11;;;;;;;10.40;5.28;;;;;;;4.63;100.00;98215.69;5058793;28;20995;-79
2021/04/02 09:12:37;;;;;;;9.95;6.40;;;;;;;4.73;100.00;98216.53;5041774;28;20056;-79
2021/04/02 09:15:06;;;;;;;9.38;5.50;;;;;;;4.79;100.00;98212.81;5058973;28;20076;-78
2021/04/02 09:17:32;;;;;;;9.32;5.85;;;;;;;4.75;100.00;98209.03;5056701;28;20037;-78
2021/04/02 09:19:58;;;;;;;8.77;5.28;;;;;;;4.77;100.00;98209.59;5054308;28;20041;-78
2021/04/02 09:22:24;;;;;;;9.50;6.00;;;;;;;4.77;100.00;98200.75;5072044;28;20127;-78
2021/04/02 09:24:51;;;;;;;13.70;5.97;;;;;;;4.84;100.00;98201.28;5072509;28;20095;-79
2021/04/02 09:27:20;;;;;;;9.35;5.35;;;;;;;4.87;100.00;98211.50;5053361;28;20044;-79
2021/04/02 09:29:47;;;;;;;8.38;5.97;;;;;;;4.82;100.00;98198.88;5070664;28;20053;-77
2021/04/02 09:32:14;;;;;;;10.32;5.55;;;;;;;4.92;100.00;98212.31;5051139;28;20446;-77
2021/04/02 09:34:41;;;;;;;11.38;5.05;;;;;;;4.75;100.00;98202.88;5050769;28;20412;-77
2021/04/02 09:37:09;;;;;;;9.57;5.55;;;;;;;4.98;100.00;98205.09;5067993;28;20081;-77
2021/04/02 09:39:37;;;;;;;9.55;5.60;;;;;;;4.86;100.00;98202.63;5051680;28;20052;-77
2021/04/02 09:42:05;;;;;;;16.25;6.88;;;;;;;4.80;100.00;98203.69;5072067;28;20136;-78
2021/04/02 09:44:38;;;;;;;10.75;6.50;;;;;;;4.66;100.00;98196.41;5072792;28;20048;-78
2021/04/02 09:47:06;;;;;;;11.60;6.07;;;;;;;4.47;100.00;98196.06;5072783;28;20560;-78
2021/04/02 09:49:34;;;;;;;12.63;6.30;;;;;;;4.42;100.00;98201.38;5036952;28;20048;-78
2021/04/02 09:52:02;;;;;;;13.05;6.28;;;;;;;4.35;100.00;98203.50;5072213;28;20044;-78
2021/04/02 09:54:32;;;;;;;13.43;5.90;;;;;;;4.36;100.00;98202.44;5060644;28;20043;-78
2021/04/02 09:57:02;;;;;;;12.35;6.50;;;;;;;4.41;100.00;98210.53;5072243;28;20043;-78
2021/04/02 09:59:28;;;;;;;11.15;6.05;;;;;;;4.36;100.00;98215.84;5052414;28;20327;-80
2021/04/02 10:01:54;;;;;;;15.60;7.75;;;;;;;4.39;100.00;98210.75;5054510;28;20221;-78
2021/04/02 10:04:20;;;;;;;13.82;7.72;;;;;;;4.43;100.00;98221.78;5052456;28;20040;-78
2021/04/02 10:06:46;;;;;;;20.00;9.45;;;;;;;4.49;100.00;98211.91;5034292;28;20045;-77
2021/04/02 10:09:13;;;;;;;20.05;9.88;;;;;;;4.41;100.00;98205.16;5016465;28;20049;-79
2021/04/02 10:11:42;;;;;;;21.88;10.68;;;;;;;4.44;100.00;98199.25;5052005;28;20440;-78
2021/04/02 10:14:09;;;;;;;22.55;11.05;;;;;;;4.69;100.00;98196.69;5065224;28;20481;-78
2021/04/02 10:16:38;;;;;;;25.27;12.38;;;;;;;4.80;100.00;98201.00;5091859;28;20048;-78
2021/04/02 10:19:05;;;;;;;24.05;12.63;;;;;;;4.82;100.00;98198.88;5074241;28;20055;-78
2021/04/02 10:21:33;;;;;;;20.75;12.52;;;;;;;4.90;100.00;98201.03;5082177;28;20075;-79
2021/04/02 10:24:00;;;;;;;22.33;12.18;;;;;;;4.78;100.00;98191.59;5057467;28;20763;-78
2021/04/02 10:26:50;;;;;;;21.80;11.02;;;;;;;4.95;100.00;98189.53;5058094;28;20032;-79
2021/04/02 10:29:16;;;;;;;20.52;11.85;;;;;;;4.70;100.00;98192.94;5058837;28;20041;-78
2021/04/02 10:31:42;;;;;;;23.88;11.10;;;;;;;4.99;100.00;98196.78;5057873;28;20112;-77
2021/04/02 10:34:09;;;;;;;17.02;10.02;;;;;;;5.04;100.00;98186.03;5046908;28;20060;-78
2021/04/02 10:36:37;;;;;;;20.58;10.32;;;;;;;5.25;100.00;98186.06;5073917;28;20051;-79
2021/04/02 10:39:09;;;;;;;16.77;9.40;;;;;;;5.24;100.00;98171.84;5054567;28;20044;-78
2021/04/02 10:41:35;;;;;;;13.73;7.82;;;;;;;5.41;100.00;98169.72;5056402;28;20048;-77
2021/04/02 10:44:01;;;;;;;14.38;8.20;;;;;;;5.77;100.00;98159.75;5041327;28;20063;-79
2021/04/02 10:46:27;;;;;;;11.32;7.80;;;;;;;5.64;100.00;98158.44;5058574;28;20120;-78
2021/04/02 10:48:54;;;;;;;13.98;8.02;;;;;;;5.92;100.00;98146.31;5055222;28;20045;-77
2021/04/02 10:51:21;;;;;;;10.40;6.50;;;;;;;6.47;100.00;98148.03;5043932;28;20040;-79
2021/04/02 10:53:49;;;;;;;8.98;5.70;;;;;;;6.55;100.00;98122.44;5034753;28;20345;-78
2021/04/02 10:56:15;;;;;;;7.80;4.90;;;;;;;6.61;100.00;98132.91;5075719;28;20447;-78
2021/04/02 10:58:41;;;;;;;8.45;4.95;;;;;;;6.77;100.00;98134.44;5071866;28;20048;-78
2021/04/02 11:01:08;;;;;;;7.57;4.75;;;;;;;6.56;100.00;98132.91;5089661;28;20059;-78
2021/04/02 11:03:34;;;;;;;7.97;5.18;;;;;;;7.10;100.00;98129.41;5067304;28;20127;-78
2021/04/02 11:06:00;;;;;;;8.43;4.22;;;;;;;7.04;100.00;98119.72;5050908;28;20064;-78
2021/04/02 11:08:28;;;;;;;7.20;4.63;;;;;;;7.13;100.00;98110.78;5069502;28;20036;-76
2021/04/02 11:10:54;;;;;;;7.65;5.00;;;;;;;7.43;100.00;98117.81;5052308;28;20127;-77
2021/04/02 11:13:21;;;;;;;8.57;5.38;;;;;;;7.50;100.00;98102.94;5076610;28;20040;-77
2021/04/02 11:15:47;;;;;;;6.75;4.50;;;;;;;7.56;100.00;98100.19;5057087;28;20054;-76
2021/04/02 11:18:13;;;;;;;6.28;4.35;;;;;;;7.54;100.00;98095.06;5075413;28;20044;-77
2021/04/02 11:20:39;;;;;;;5.85;4.07;;;;;;;7.30;100.00;98086.16;5087406;28;20024;-77
2021/04/02 11:23:05;;;;;;;5.82;4.40;;;;;;;7.52;100.00;98091.88;5056768;28;20585;-77
2021/04/02 11:25:32;;;;;;;6.10;4.10;;;;;;;7.72;100.00;98088.16;5050117;28;20075;-77
2021/04/02 11:27:59;;;;;;;7.55;4.50;;;;;;;8.02;100.00;98090.56;5016786;28;20041;-77
2021/04/02 11:30:30;;;;;;;7.43;4.85;;;;;;;7.77;100.00;98080.06;5031796;28;20047;-76
2021/04/02 11:32:56;;;;;;;9.43;5.20;;;;;;;7.52;100.00;98071.13;5050645;28;20080;-76
2021/04/02 11:35:22;;;;;;;9.15;5.47;;;;;;;7.54;100.00;98082.41;5088165;28;20507;-77